KEND/END METAR and TAF weather

Enter ICAO airport designator
Station Type Date Time Source
KEND METAR 2021/01/20 18:56 UTC NOAA

KEND 201856Z AUTO 19017G22KT 10SM OVC120 08/M03 A3012 RMK AO2 PRESFR SLP209 T00771032 $


Station Type Date Time Source
KEND Decoded METAR 2021/01/20 18:56 UTC NOAA

Vance Air Force Base / Enid, OK, United States (KEND) 36-20N 097-55W
Jan 20, 2021 - 01:56 PM EST / 2021.01.20 1856 UTC
Wind: from the S (190 degrees) at 20 MPH (17 KT) gusting to 25 MPH (22 KT):0
Visibility: 10 mile(s):0
Sky conditions: overcast
Temperature: 45.9 F (7.7 C)
Dew Point: 26.2 F (-3.2 C)
Relative Humidity: 45%
Pressure (altimeter): 30.12 in. Hg (1019 hPa)
Pressure tendency: falling rapidly
ob: KEND 201856Z AUTO 19017G22KT 10SM OVC120 08/M03 A3012 RMK AO2 PRESFR SLP209 T00771032
cycle: 19

Station Type Date Time Source
KEND TAF 2021/01/20 18:03 UTC NOAA

TAF KEND 201800Z 2018/2124 20015G25KT 9999 SCT050 BKN120 OVC250 510054 QNH3006INS
BECMG 2022/2023 20012KT 9999 FEW050 SCT140 BKN250 QNH2997INS
BECMG 2106/2107 VRB06KT 9999 SCT250 QNH2993INS
TEMPO 2110/2115 4800 BR
BECMG 2117/2118 05010KT 9999 SCT250 QNH2988INS TX12/2021Z TN01/2102Z

Example: see airport list